sensor_id;sensor_type;location;lat;lon;timestamp;temperature;humidity
4530;DHT22;2277;51.626;7.516;2023-06-19T00:00:11;26.40;74.90
4530;DHT22;2277;51.626;7.516;2023-06-19T00:02:41;26.40;75.00
4530;DHT22;2277;51.626;7.516;2023-06-19T00:05:07;26.40;75.10
4530;DHT22;2277;51.626;7.516;2023-06-19T00:07:36;26.50;75.30
4530;DHT22;2277;51.626;7.516;2023-06-19T00:10:02;26.50;75.50
4530;DHT22;2277;51.626;7.516;2023-06-19T00:12:27;26.50;75.60
4530;DHT22;2277;51.626;7.516;2023-06-19T00:14:53;26.40;76.00
4530;DHT22;2277;51.626;7.516;2023-06-19T00:17:18;26.40;76.50
4530;DHT22;2277;51.626;7.516;2023-06-19T00:19:44;26.30;76.70
4530;DHT22;2277;51.626;7.516;2023-06-19T00:22:10;26.30;77.30
4530;DHT22;2277;51.626;7.516;2023-06-19T00:24:36;26.20;77.80
4530;DHT22;2277;51.626;7.516;2023-06-19T00:27:01;26.10;78.60
4530;DHT22;2277;51.626;7.516;2023-06-19T00:29:29;26.10;79.10
4530;DHT22;2277;51.626;7.516;2023-06-19T00:31:54;26.10;79.30
4530;DHT22;2277;51.626;7.516;2023-06-19T00:34:20;26.10;79.70
4530;DHT22;2277;51.626;7.516;2023-06-19T00:36:46;26.10;79.60
4530;DHT22;2277;51.626;7.516;2023-06-19T00:39:12;26.20;80.00
4530;DHT22;2277;51.626;7.516;2023-06-19T00:41:38;26.10;80.50
4530;DHT22;2277;51.626;7.516;2023-06-19T00:44:04;26.10;81.60
4530;DHT22;2277;51.626;7.516;2023-06-19T00:46:31;26.10;80.90
4530;DHT22;2277;51.626;7.516;2023-06-19T00:48:57;26.10;81.40
4530;DHT22;2277;51.626;7.516;2023-06-19T00:51:22;25.90;82.10
4530;DHT22;2277;51.626;7.516;2023-06-19T00:53:49;25.90;82.80
4530;DHT22;2277;51.626;7.516;2023-06-19T00:56:14;25.80;83.40
4530;DHT22;2277;51.626;7.516;2023-06-19T00:58:43;25.80;83.80
4530;DHT22;2277;51.626;7.516;2023-06-19T01:01:09;25.90;84.10
4530;DHT22;2277;51.626;7.516;2023-06-19T01:03:35;25.90;84.30
4530;DHT22;2277;51.626;7.516;2023-06-19T01:06:08;25.80;84.80
4530;DHT22;2277;51.626;7.516;2023-06-19T01:11:07;25.50;87.40
4530;DHT22;2277;51.626;7.516;2023-06-19T01:13:58;25.50;88.60
4530;DHT22;2277;51.626;7.516;2023-06-19T01:16:26;25.50;89.30
4530;DHT22;2277;51.626;7.516;2023-06-19T01:18:53;25.50;90.50
4530;DHT22;2277;51.626;7.516;2023-06-19T01:21:19;25.50;90.80
4530;DHT22;2277;51.626;7.516;2023-06-19T01:23:45;25.50;91.00
4530;DHT22;2277;51.626;7.516;2023-06-19T01:26:13;25.50;91.50
4530;DHT22;2277;51.626;7.516;2023-06-19T01:28:42;25.40;92.20
4530;DHT22;2277;51.626;7.516;2023-06-19T01:31:13;25.50;92.50
4530;DHT22;2277;51.626;7.516;2023-06-19T01:33:42;25.50;92.70
4530;DHT22;2277;51.626;7.516;2023-06-19T01:36:09;25.40;93.60
4530;DHT22;2277;51.626;7.516;2023-06-19T01:38:36;25.40;93.80
4530;DHT22;2277;51.626;7.516;2023-06-19T01:41:04;25.40;94.00
4530;DHT22;2277;51.626;7.516;2023-06-19T01:43:31;25.40;94.10
4530;DHT22;2277;51.626;7.516;2023-06-19T01:45:58;25.40;94.60
4530;DHT22;2277;51.626;7.516;2023-06-19T01:48:24;25.50;94.80
4530;DHT22;2277;51.626;7.516;2023-06-19T01:50:50;25.50;95.00
4530;DHT22;2277;51.626;7.516;2023-06-19T01:53:16;25.50;95.20
4530;DHT22;2277;51.626;7.516;2023-06-19T01:55:42;25.60;95.50
4530;DHT22;2277;51.626;7.516;2023-06-19T01:58:08;25.60;95.70
4530;DHT22;2277;51.626;7.516;2023-06-19T02:00:33;25.70;96.20
4530;DHT22;2277;51.626;7.516;2023-06-19T02:03:03;25.70;96.60
4530;DHT22;2277;51.626;7.516;2023-06-19T02:05:29;25.70;96.90
4530;DHT22;2277;51.626;7.516;2023-06-19T02:07:55;25.70;97.30
4530;DHT22;2277;51.626;7.516;2023-06-19T02:10:21;25.70;97.50
4530;DHT22;2277;51.626;7.516;2023-06-19T02:12:46;25.70;97.80
4530;DHT22;2277;51.626;7.516;2023-06-19T02:15:12;25.70;97.80
4530;DHT22;2277;51.626;7.516;2023-06-19T02:17:37;25.70;97.80
4530;DHT22;2277;51.626;7.516;2023-06-19T02:20:04;25.70;98.00
4530;DHT22;2277;51.626;7.516;2023-06-19T02:22:34;25.70;98.20
4530;DHT22;2277;51.626;7.516;2023-06-19T02:24:59;25.70;98.40
4530;DHT22;2277;51.626;7.516;2023-06-19T02:27:25;25.70;98.60
4530;DHT22;2277;51.626;7.516;2023-06-19T02:29:51;25.70;98.70
4530;DHT22;2277;51.626;7.516;2023-06-19T02:32:16;25.70;98.90
4530;DHT22;2277;51.626;7.516;2023-06-19T02:34:42;25.60;99.30
4530;DHT22;2277;51.626;7.516;2023-06-19T02:37:07;25.60;99.60
4530;DHT22;2277;51.626;7.516;2023-06-19T02:39:33;25.50;99.80
4530;DHT22;2277;51.626;7.516;2023-06-19T02:41:59;25.50;99.90
4530;DHT22;2277;51.626;7.516;2023-06-19T02:44:25;25.50;99.90
4530;DHT22;2277;51.626;7.516;2023-06-19T02:46:50;25.50;99.90
4530;DHT22;2277;51.626;7.516;2023-06-19T02:49:16;25.50;99.90
4530;DHT22;2277;51.626;7.516;2023-06-19T02:51:42;25.40;99.90
4530;DHT22;2277;51.626;7.516;2023-06-19T02:54:07;25.40;99.90
4530;DHT22;2277;51.626;7.516;2023-06-19T02:56:33;25.40;99.90
4530;DHT22;2277;51.626;7.516;2023-06-19T02:58:58;25.40;99.90
4530;DHT22;2277;51.626;7.516;2023-06-19T03:01:24;25.50;99.90
4530;DHT22;2277;51.626;7.516;2023-06-19T03:03:50;25.40;99.90
4530;DHT22;2277;51.626;7.516;2023-06-19T03:06:17;25.30;99.90
4530;DHT22;2277;51.626;7.516;2023-06-19T03:08:43;25.40;99.90
4530;DHT22;2277;51.626;7.516;2023-06-19T03:11:09;25.30;99.90
4530;DHT22;2277;51.626;7.516;2023-06-19T03:13:51;25.30;99.90
4530;DHT22;2277;51.626;7.516;2023-06-19T03:16:17;25.30;99.90
4530;DHT22;2277;51.626;7.516;2023-06-19T03:18:43;25.30;99.90
4530;DHT22;2277;51.626;7.516;2023-06-19T03:21:18;25.30;99.90
4530;DHT22;2277;51.626;7.516;2023-06-19T03:23:45;25.20;99.90
4530;DHT22;2277;51.626;7.516;2023-06-19T03:26:10;25.30;99.90
4530;DHT22;2277;51.626;7.516;2023-06-19T03:28:36;25.30;99.90
4530;DHT22;2277;51.626;7.516;2023-06-19T03:31:02;25.40;99.90
4530;DHT22;2277;51.626;7.516;2023-06-19T03:33:28;25.30;99.90
4530;DHT22;2277;51.626;7.516;2023-06-19T03:35:53;25.30;99.90
4530;DHT22;2277;51.626;7.516;2023-06-19T03:38:19;25.30;99.90
4530;DHT22;2277;51.626;7.516;2023-06-19T03:40:45;25.10;99.90
4530;DHT22;2277;51.626;7.516;2023-06-19T03:43:10;25.20;99.90
4530;DHT22;2277;51.626;7.516;2023-06-19T03:45:36;25.10;99.90
4530;DHT22;2277;51.626;7.516;2023-06-19T03:48:02;25.00;99.90
4530;DHT22;2277;51.626;7.516;2023-06-19T03:50:28;24.90;99.90
4530;DHT22;2277;51.626;7.516;2023-06-19T03:52:53;24.90;99.90
4530;DHT22;2277;51.626;7.516;2023-06-19T03:55:19;24.80;99.90
4530;DHT22;2277;51.626;7.516;2023-06-19T03:57:44;24.70;99.90
4530;DHT22;2277;51.626;7.516;2023-06-19T04:00:10;24.70;99.90
4530;DHT22;2277;51.626;7.516;2023-06-19T04:02:38;24.60;99.90
4530;DHT22;2277;51.626;7.516;2023-06-19T04:05:05;24.60;99.90
4530;DHT22;2277;51.626;7.516;2023-06-19T04:07:31;24.60;99.90
4530;DHT22;2277;51.626;7.516;2023-06-19T04:09:57;24.60;99.90
4530;DHT22;2277;51.626;7.516;2023-06-19T04:12:23;24.50;99.90
4530;DHT22;2277;51.626;7.516;2023-06-19T04:14:49;24.60;99.90
4530;DHT22;2277;51.626;7.516;2023-06-19T04:17:14;24.60;99.90
4530;DHT22;2277;51.626;7.516;2023-06-19T04:19:41;24.70;99.90
4530;DHT22;2277;51.626;7.516;2023-06-19T04:22:07;24.70;99.90
4530;DHT22;2277;51.626;7.516;2023-06-19T04:24:32;24.70;99.90
4530;DHT22;2277;51.626;7.516;2023-06-19T04:26:58;24.70;99.90
4530;DHT22;2277;51.626;7.516;2023-06-19T04:29:24;24.80;99.90
4530;DHT22;2277;51.626;7.516;2023-06-19T04:31:49;24.70;99.90
4530;DHT22;2277;51.626;7.516;2023-06-19T04:34:16;24.70;99.90
4530;DHT22;2277;51.626;7.516;2023-06-19T04:36:42;24.60;99.90
4530;DHT22;2277;51.626;7.516;2023-06-19T04:39:08;24.70;99.90
4530;DHT22;2277;51.626;7.516;2023-06-19T04:41:34;24.60;99.90
4530;DHT22;2277;51.626;7.516;2023-06-19T04:44:04;24.60;99.90
4530;DHT22;2277;51.626;7.516;2023-06-19T04:46:30;24.60;99.90
4530;DHT22;2277;51.626;7.516;2023-06-19T04:48:55;24.60;99.90
4530;DHT22;2277;51.626;7.516;2023-06-19T04:51:21;24.50;99.90
4530;DHT22;2277;51.626;7.516;2023-06-19T04:53:47;24.40;99.90
4530;DHT22;2277;51.626;7.516;2023-06-19T04:56:14;24.40;99.90
4530;DHT22;2277;51.626;7.516;2023-06-19T04:58:40;24.30;99.90
4530;DHT22;2277;51.626;7.516;2023-06-19T05:01:12;24.30;99.90
4530;DHT22;2277;51.626;7.516;2023-06-19T05:03:37;24.30;99.90
4530;DHT22;2277;51.626;7.516;2023-06-19T05:06:03;24.20;99.90
4530;DHT22;2277;51.626;7.516;2023-06-19T05:08:29;24.20;99.90
4530;DHT22;2277;51.626;7.516;2023-06-19T05:10:54;24.30;99.90
4530;DHT22;2277;51.626;7.516;2023-06-19T05:13:20;24.30;99.90
4530;DHT22;2277;51.626;7.516;2023-06-19T05:15:46;24.30;99.90
4530;DHT22;2277;51.626;7.516;2023-06-19T05:18:11;24.20;99.90
4530;DHT22;2277;51.626;7.516;2023-06-19T05:20:37;24.10;99.90
4530;DHT22;2277;51.626;7.516;2023-06-19T05:23:02;24.10;99.90
4530;DHT22;2277;51.626;7.516;2023-06-19T05:25:28;24.00;99.90
4530;DHT22;2277;51.626;7.516;2023-06-19T05:27:53;24.00;99.90
4530;DHT22;2277;51.626;7.516;2023-06-19T05:30:19;23.90;99.90
4530;DHT22;2277;51.626;7.516;2023-06-19T05:32:45;23.80;99.90
4530;DHT22;2277;51.626;7.516;2023-06-19T05:35:10;23.80;99.90
4530;DHT22;2277;51.626;7.516;2023-06-19T05:37:36;23.80;99.90
4530;DHT22;2277;51.626;7.516;2023-06-19T05:40:03;23.80;99.90
4530;DHT22;2277;51.626;7.516;2023-06-19T05:42:29;23.90;99.90
4530;DHT22;2277;51.626;7.516;2023-06-19T05:44:54;23.80;99.90
4530;DHT22;2277;51.626;7.516;2023-06-19T05:47:20;23.70;99.90
4530;DHT22;2277;51.626;7.516;2023-06-19T05:49:47;23.70;99.90
4530;DHT22;2277;51.626;7.516;2023-06-19T05:52:12;23.60;99.90
4530;DHT22;2277;51.626;7.516;2023-06-19T05:54:38;23.60;99.90
4530;DHT22;2277;51.626;7.516;2023-06-19T05:57:04;23.50;99.90
4530;DHT22;2277;51.626;7.516;2023-06-19T05:59:29;23.40;99.90
4530;DHT22;2277;51.626;7.516;2023-06-19T06:01:55;23.40;99.90
4530;DHT22;2277;51.626;7.516;2023-06-19T06:04:21;23.40;99.90
4530;DHT22;2277;51.626;7.516;2023-06-19T06:06:47;23.30;99.90
4530;DHT22;2277;51.626;7.516;2023-06-19T06:09:13;23.50;99.90
4530;DHT22;2277;51.626;7.516;2023-06-19T06:11:40;23.50;99.90
4530;DHT22;2277;51.626;7.516;2023-06-19T06:14:05;23.50;99.90
4530;DHT22;2277;51.626;7.516;2023-06-19T06:16:31;23.50;99.90
4530;DHT22;2277;51.626;7.516;2023-06-19T06:18:56;23.60;99.90
4530;DHT22;2277;51.626;7.516;2023-06-19T06:21:22;23.70;99.90
4530;DHT22;2277;51.626;7.516;2023-06-19T06:23:47;23.70;99.90
4530;DHT22;2277;51.626;7.516;2023-06-19T06:26:13;23.80;99.90
4530;DHT22;2277;51.626;7.516;2023-06-19T06:28:40;23.80;99.90
4530;DHT22;2277;51.626;7.516;2023-06-19T06:31:05;23.90;99.90
4530;DHT22;2277;51.626;7.516;2023-06-19T06:33:31;23.80;99.90
4530;DHT22;2277;51.626;7.516;2023-06-19T06:35:57;23.90;99.90
4530;DHT22;2277;51.626;7.516;2023-06-19T06:38:23;23.80;99.90
4530;DHT22;2277;51.626;7.516;2023-06-19T06:40:49;23.80;99.90
4530;DHT22;2277;51.626;7.516;2023-06-19T06:43:14;23.80;99.90
4530;DHT22;2277;51.626;7.516;2023-06-19T06:45:40;23.90;99.90
4530;DHT22;2277;51.626;7.516;2023-06-19T06:48:07;23.90;99.90
4530;DHT22;2277;51.626;7.516;2023-06-19T06:50:33;24.00;99.90
4530;DHT22;2277;51.626;7.516;2023-06-19T06:53:00;24.10;99.90
4530;DHT22;2277;51.626;7.516;2023-06-19T06:55:25;24.20;99.90
4530;DHT22;2277;51.626;7.516;2023-06-19T06:57:51;24.20;99.90
4530;DHT22;2277;51.626;7.516;2023-06-19T07:00:17;24.20;99.90
4530;DHT22;2277;51.626;7.516;2023-06-19T07:02:43;24.20;99.90
4530;DHT22;2277;51.626;7.516;2023-06-19T07:05:09;24.20;99.90
4530;DHT22;2277;51.626;7.516;2023-06-19T07:07:35;24.40;99.90
4530;DHT22;2277;51.626;7.516;2023-06-19T07:10:01;24.50;99.90
4530;DHT22;2277;51.626;7.516;2023-06-19T07:12:26;24.40;99.90
4530;DHT22;2277;51.626;7.516;2023-06-19T07:14:55;24.60;99.90
4530;DHT22;2277;51.626;7.516;2023-06-19T07:17:21;24.60;99.90
4530;DHT22;2277;51.626;7.516;2023-06-19T07:19:46;24.60;99.90
4530;DHT22;2277;51.626;7.516;2023-06-19T07:22:12;24.70;99.90
4530;DHT22;2277;51.626;7.516;2023-06-19T07:24:40;24.80;99.90
4530;DHT22;2277;51.626;7.516;2023-06-19T07:27:06;24.80;99.90
4530;DHT22;2277;51.626;7.516;2023-06-19T07:29:32;24.80;99.90
4530;DHT22;2277;51.626;7.516;2023-06-19T07:31:58;24.70;99.90
4530;DHT22;2277;51.626;7.516;2023-06-19T07:34:23;24.80;99.90
4530;DHT22;2277;51.626;7.516;2023-06-19T07:36:49;24.90;99.90
4530;DHT22;2277;51.626;7.516;2023-06-19T07:39:15;24.80;99.90
4530;DHT22;2277;51.626;7.516;2023-06-19T07:41:41;24.70;99.90
4530;DHT22;2277;51.626;7.516;2023-06-19T07:44:07;24.60;99.90
4530;DHT22;2277;51.626;7.516;2023-06-19T07:46:32;24.60;99.90
4530;DHT22;2277;51.626;7.516;2023-06-19T07:48:58;24.70;99.90
4530;DHT22;2277;51.626;7.516;2023-06-19T07:51:23;24.70;99.90
4530;DHT22;2277;51.626;7.516;2023-06-19T07:53:49;24.80;99.90
4530;DHT22;2277;51.626;7.516;2023-06-19T07:56:15;24.80;99.90
4530;DHT22;2277;51.626;7.516;2023-06-19T07:58:40;24.90;99.90
4530;DHT22;2277;51.626;7.516;2023-06-19T08:01:06;24.90;99.90
4530;DHT22;2277;51.626;7.516;2023-06-19T08:03:32;25.10;99.90
4530;DHT22;2277;51.626;7.516;2023-06-19T08:05:57;25.10;99.90
4530;DHT22;2277;51.626;7.516;2023-06-19T08:08:23;25.10;99.90
4530;DHT22;2277;51.626;7.516;2023-06-19T08:10:48;25.10;99.90
4530;DHT22;2277;51.626;7.516;2023-06-19T08:13:14;25.20;99.90
4530;DHT22;2277;51.626;7.516;2023-06-19T08:15:40;25.20;99.90
4530;DHT22;2277;51.626;7.516;2023-06-19T08:18:05;25.20;99.90
4530;DHT22;2277;51.626;7.516;2023-06-19T08:20:31;25.30;99.90
4530;DHT22;2277;51.626;7.516;2023-06-19T08:22:56;25.30;99.90
4530;DHT22;2277;51.626;7.516;2023-06-19T08:25:22;25.30;99.90
4530;DHT22;2277;51.626;7.516;2023-06-19T08:27:48;25.30;99.90
4530;DHT22;2277;51.626;7.516;2023-06-19T08:30:14;25.40;99.90
4530;DHT22;2277;51.626;7.516;2023-06-19T08:32:39;25.30;99.90
4530;DHT22;2277;51.626;7.516;2023-06-19T08:35:05;25.40;99.90
4530;DHT22;2277;51.626;7.516;2023-06-19T08:37:31;25.40;99.90
4530;DHT22;2277;51.626;7.516;2023-06-19T08:39:57;25.40;99.90
4530;DHT22;2277;51.626;7.516;2023-06-19T08:42:22;25.40;99.90
4530;DHT22;2277;51.626;7.516;2023-06-19T08:44:49;25.50;99.90
4530;DHT22;2277;51.626;7.516;2023-06-19T08:47:15;25.50;99.90
4530;DHT22;2277;51.626;7.516;2023-06-19T08:49:40;25.60;99.90
4530;DHT22;2277;51.626;7.516;2023-06-19T08:52:06;25.60;99.90
4530;DHT22;2277;51.626;7.516;2023-06-19T08:54:33;25.60;99.90
4530;DHT22;2277;51.626;7.516;2023-06-19T08:57:02;25.60;99.90
4530;DHT22;2277;51.626;7.516;2023-06-19T08:59:29;25.60;99.90
4530;DHT22;2277;51.626;7.516;2023-06-19T09:01:56;25.50;99.90
4530;DHT22;2277;51.626;7.516;2023-06-19T09:04:24;25.40;99.90
4530;DHT22;2277;51.626;7.516;2023-06-19T09:07:01;25.50;99.90
4530;DHT22;2277;51.626;7.516;2023-06-19T09:09:28;25.60;99.90
4530;DHT22;2277;51.626;7.516;2023-06-19T09:17:03;25.40;99.90
4530;DHT22;2277;51.626;7.516;2023-06-19T09:19:29;25.40;99.90
4530;DHT22;2277;51.626;7.516;2023-06-19T09:22:07;25.40;99.90
4530;DHT22;2277;51.626;7.516;2023-06-19T09:24:35;25.50;99.90
4530;DHT22;2277;51.626;7.516;2023-06-19T09:27:14;25.50;99.90
4530;DHT22;2277;51.626;7.516;2023-06-19T09:29:41;25.60;99.90
4530;DHT22;2277;51.626;7.516;2023-06-19T09:32:23;25.70;99.90
4530;DHT22;2277;51.626;7.516;2023-06-19T09:34:50;25.70;99.90
4530;DHT22;2277;51.626;7.516;2023-06-19T09:37:23;25.70;99.90
4530;DHT22;2277;51.626;7.516;2023-06-19T09:42:30;25.50;99.90
4530;DHT22;2277;51.626;7.516;2023-06-19T09:45:00;25.50;99.90
4530;DHT22;2277;51.626;7.516;2023-06-19T09:47:35;25.60;99.90
4530;DHT22;2277;51.626;7.516;2023-06-19T09:50:01;25.60;99.90
4530;DHT22;2277;51.626;7.516;2023-06-19T09:52:27;25.70;99.90
4530;DHT22;2277;51.626;7.516;2023-06-19T09:54:54;25.70;99.90
4530;DHT22;2277;51.626;7.516;2023-06-19T09:57:21;25.70;99.90
4530;DHT22;2277;51.626;7.516;2023-06-19T09:59:55;25.90;99.90
4530;DHT22;2277;51.626;7.516;2023-06-19T10:02:22;25.90;99.90
4530;DHT22;2277;51.626;7.516;2023-06-19T10:04:55;25.70;99.90
4530;DHT22;2277;51.626;7.516;2023-06-19T10:07:43;25.70;99.90
4530;DHT22;2277;51.626;7.516;2023-06-19T10:10:22;25.80;99.90
4530;DHT22;2277;51.626;7.516;2023-06-19T10:12:48;25.90;99.90
4530;DHT22;2277;51.626;7.516;2023-06-19T10:15:28;25.90;99.90
4530;DHT22;2277;51.626;7.516;2023-06-19T10:18:03;25.90;99.90
4530;DHT22;2277;51.626;7.516;2023-06-19T10:20:33;26.00;99.90
4530;DHT22;2277;51.626;7.516;2023-06-19T10:23:16;26.10;99.90
4530;DHT22;2277;51.626;7.516;2023-06-19T10:26:02;26.00;99.90
4530;DHT22;2277;51.626;7.516;2023-06-19T10:28:31;26.00;99.90
4530;DHT22;2277;51.626;7.516;2023-06-19T10:31:05;26.00;99.90
4530;DHT22;2277;51.626;7.516;2023-06-19T10:33:32;26.20;99.90
4530;DHT22;2277;51.626;7.516;2023-06-19T10:35:59;26.40;99.90
4530;DHT22;2277;51.626;7.516;2023-06-19T10:38:28;26.50;99.90
4530;DHT22;2277;51.626;7.516;2023-06-19T10:40:54;26.70;99.90
4530;DHT22;2277;51.626;7.516;2023-06-19T10:43:23;27.00;99.90
4530;DHT22;2277;51.626;7.516;2023-06-19T10:45:51;27.20;99.90
4530;DHT22;2277;51.626;7.516;2023-06-19T10:48:21;27.30;99.90
4530;DHT22;2277;51.626;7.516;2023-06-19T10:50:48;27.60;99.90
4530;DHT22;2277;51.626;7.516;2023-06-19T10:53:29;27.70;99.90
4530;DHT22;2277;51.626;7.516;2023-06-19T10:56:00;27.70;99.90
4530;DHT22;2277;51.626;7.516;2023-06-19T10:58:26;27.60;99.90
4530;DHT22;2277;51.626;7.516;2023-06-19T11:00:52;27.60;99.90
4530;DHT22;2277;51.626;7.516;2023-06-19T11:03:19;27.90;99.90
4530;DHT22;2277;51.626;7.516;2023-06-19T11:05:45;28.10;99.90
4530;DHT22;2277;51.626;7.516;2023-06-19T11:08:20;28.40;99.90
4530;DHT22;2277;51.626;7.516;2023-06-19T11:10:46;28.50;99.90
4530;DHT22;2277;51.626;7.516;2023-06-19T11:13:20;28.60;99.90
4530;DHT22;2277;51.626;7.516;2023-06-19T11:15:47;28.70;99.90
4530;DHT22;2277;51.626;7.516;2023-06-19T11:18:16;28.90;99.90
4530;DHT22;2277;51.626;7.516;2023-06-19T11:20:50;29.30;99.90
4530;DHT22;2277;51.626;7.516;2023-06-19T11:23:16;29.60;99.90
4530;DHT22;2277;51.626;7.516;2023-06-19T11:25:43;29.90;99.90
4530;DHT22;2277;51.626;7.516;2023-06-19T11:28:15;30.10;99.60
4530;DHT22;2277;51.626;7.516;2023-06-19T11:30:43;30.10;99.80
4530;DHT22;2277;51.626;7.516;2023-06-19T11:33:35;30.00;99.60
4530;DHT22;2277;51.626;7.516;2023-06-19T11:36:03;29.90;99.90
4530;DHT22;2277;51.626;7.516;2023-06-19T11:38:28;30.00;98.10
4530;DHT22;2277;51.626;7.516;2023-06-19T11:40:55;29.80;99.60
4530;DHT22;2277;51.626;7.516;2023-06-19T11:43:31;29.90;98.60
4530;DHT22;2277;51.626;7.516;2023-06-19T11:46:06;29.90;98.90
4530;DHT22;2277;51.626;7.516;2023-06-19T11:48:36;29.80;98.30
4530;DHT22;2277;51.626;7.516;2023-06-19T11:51:02;29.60;98.20
4530;DHT22;2277;51.626;7.516;2023-06-19T11:53:28;29.50;98.70
4530;DHT22;2277;51.626;7.516;2023-06-19T11:55:53;29.40;98.40
4530;DHT22;2277;51.626;7.516;2023-06-19T11:58:19;29.30;98.90
4530;DHT22;2277;51.626;7.516;2023-06-19T12:00:46;29.30;99.90
4530;DHT22;2277;51.626;7.516;2023-06-19T12:03:12;29.40;99.90
4530;DHT22;2277;51.626;7.516;2023-06-19T12:05:37;29.60;95.80
4530;DHT22;2277;51.626;7.516;2023-06-19T12:08:03;29.60;97.10
4530;DHT22;2277;51.626;7.516;2023-06-19T12:10:30;29.70;96.30
4530;DHT22;2277;51.626;7.516;2023-06-19T12:12:55;29.80;96.00
4530;DHT22;2277;51.626;7.516;2023-06-19T12:15:21;30.00;94.80
4530;DHT22;2277;51.626;7.516;2023-06-19T12:17:47;30.10;93.90
4530;DHT22;2277;51.626;7.516;2023-06-19T12:20:13;30.30;93.80
4530;DHT22;2277;51.626;7.516;2023-06-19T12:22:42;30.30;93.80
4530;DHT22;2277;51.626;7.516;2023-06-19T12:25:08;30.40;94.70
4530;DHT22;2277;51.626;7.516;2023-06-19T12:27:34;30.60;94.70
4530;DHT22;2277;51.626;7.516;2023-06-19T12:29:59;30.80;94.40
4530;DHT22;2277;51.626;7.516;2023-06-19T12:32:25;30.90;93.80
4530;DHT22;2277;51.626;7.516;2023-06-19T12:34:51;31.00;93.90
4530;DHT22;2277;51.626;7.516;2023-06-19T12:37:20;31.10;93.70
4530;DHT22;2277;51.626;7.516;2023-06-19T12:39:46;31.00;93.40
4530;DHT22;2277;51.626;7.516;2023-06-19T12:42:12;31.20;93.30
4530;DHT22;2277;51.626;7.516;2023-06-19T12:44:41;31.30;91.80
4530;DHT22;2277;51.626;7.516;2023-06-19T12:47:07;31.50;91.20
4530;DHT22;2277;51.626;7.516;2023-06-19T12:49:33;31.60;90.40
4530;DHT22;2277;51.626;7.516;2023-06-19T12:51:59;31.70;90.90
4530;DHT22;2277;51.626;7.516;2023-06-19T12:54:25;31.80;90.70
4530;DHT22;2277;51.626;7.516;2023-06-19T12:56:51;31.90;89.30
4530;DHT22;2277;51.626;7.516;2023-06-19T12:59:17;31.90;89.10
4530;DHT22;2277;51.626;7.516;2023-06-19T13:01:42;31.80;86.10
4530;DHT22;2277;51.626;7.516;2023-06-19T13:04:08;31.70;85.00
4530;DHT22;2277;51.626;7.516;2023-06-19T13:06:35;31.80;86.00
4530;DHT22;2277;51.626;7.516;2023-06-19T13:09:01;31.80;85.50
4530;DHT22;2277;51.626;7.516;2023-06-19T13:11:27;31.90;84.10
4530;DHT22;2277;51.626;7.516;2023-06-19T13:13:53;31.90;83.30
4530;DHT22;2277;51.626;7.516;2023-06-19T13:16:18;31.80;84.00
4530;DHT22;2277;51.626;7.516;2023-06-19T13:18:44;31.80;84.60
4530;DHT22;2277;51.626;7.516;2023-06-19T13:21:11;31.80;83.80
4530;DHT22;2277;51.626;7.516;2023-06-19T13:23:37;31.70;83.30
4530;DHT22;2277;51.626;7.516;2023-06-19T13:26:04;31.60;82.50
4530;DHT22;2277;51.626;7.516;2023-06-19T13:28:30;31.50;83.30
4530;DHT22;2277;51.626;7.516;2023-06-19T13:30:55;31.40;82.80
4530;DHT22;2277;51.626;7.516;2023-06-19T13:33:21;31.30;81.10
4530;DHT22;2277;51.626;7.516;2023-06-19T13:35:47;31.40;82.10
4530;DHT22;2277;51.626;7.516;2023-06-19T13:38:12;31.40;82.00
4530;DHT22;2277;51.626;7.516;2023-06-19T13:40:38;31.40;83.00
4530;DHT22;2277;51.626;7.516;2023-06-19T13:43:03;31.40;82.50
4530;DHT22;2277;51.626;7.516;2023-06-19T13:45:31;31.60;83.90
4530;DHT22;2277;51.626;7.516;2023-06-19T13:47:57;31.70;83.50
4530;DHT22;2277;51.626;7.516;2023-06-19T13:50:23;31.80;82.30
4530;DHT22;2277;51.626;7.516;2023-06-19T13:52:49;32.00;79.60
4530;DHT22;2277;51.626;7.516;2023-06-19T13:55:15;32.10;79.40
4530;DHT22;2277;51.626;7.516;2023-06-19T13:57:42;32.20;79.60
4530;DHT22;2277;51.626;7.516;2023-06-19T14:00:09;32.20;78.50
4530;DHT22;2277;51.626;7.516;2023-06-19T14:02:36;32.30;76.70
4530;DHT22;2277;51.626;7.516;2023-06-19T14:05:03;32.10;76.70
4530;DHT22;2277;51.626;7.516;2023-06-19T14:07:28;32.00;76.80
4530;DHT22;2277;51.626;7.516;2023-06-19T14:09:54;32.00;77.50
4530;DHT22;2277;51.626;7.516;2023-06-19T14:12:19;32.10;77.30
4530;DHT22;2277;51.626;7.516;2023-06-19T14:14:45;32.10;75.90
4530;DHT22;2277;51.626;7.516;2023-06-19T14:17:11;32.20;76.90
4530;DHT22;2277;51.626;7.516;2023-06-19T14:19:36;32.20;76.90
4530;DHT22;2277;51.626;7.516;2023-06-19T14:22:02;32.40;74.30
4530;DHT22;2277;51.626;7.516;2023-06-19T14:24:27;32.50;73.30
4530;DHT22;2277;51.626;7.516;2023-06-19T14:26:53;32.70;74.90
4530;DHT22;2277;51.626;7.516;2023-06-19T14:29:18;32.80;74.90
4530;DHT22;2277;51.626;7.516;2023-06-19T14:31:46;33.00;74.60
4530;DHT22;2277;51.626;7.516;2023-06-19T14:34:11;33.10;73.20
4530;DHT22;2277;51.626;7.516;2023-06-19T14:36:38;33.30;70.80
4530;DHT22;2277;51.626;7.516;2023-06-19T14:39:04;33.40;69.40
4530;DHT22;2277;51.626;7.516;2023-06-19T14:41:29;33.40;68.30
4530;DHT22;2277;51.626;7.516;2023-06-19T14:43:55;33.30;68.20
4530;DHT22;2277;51.626;7.516;2023-06-19T14:46:20;33.20;70.70
4530;DHT22;2277;51.626;7.516;2023-06-19T14:48:46;33.20;71.30
4530;DHT22;2277;51.626;7.516;2023-06-19T14:51:12;33.20;69.30
4530;DHT22;2277;51.626;7.516;2023-06-19T14:53:37;33.30;71.00
4530;DHT22;2277;51.626;7.516;2023-06-19T14:56:03;33.30;71.70
4530;DHT22;2277;51.626;7.516;2023-06-19T14:58:29;33.50;70.00
4530;DHT22;2277;51.626;7.516;2023-06-19T15:00:55;33.60;69.60
4530;DHT22;2277;51.626;7.516;2023-06-19T15:03:21;33.70;70.90
4530;DHT22;2277;51.626;7.516;2023-06-19T15:05:47;33.60;68.20
4530;DHT22;2277;51.626;7.516;2023-06-19T15:08:12;33.40;65.20
4530;DHT22;2277;51.626;7.516;2023-06-19T15:10:38;33.10;65.20
4530;DHT22;2277;51.626;7.516;2023-06-19T15:13:03;33.20;66.70
4530;DHT22;2277;51.626;7.516;2023-06-19T15:15:30;33.20;65.50
4530;DHT22;2277;51.626;7.516;2023-06-19T15:17:56;33.30;67.50
4530;DHT22;2277;51.626;7.516;2023-06-19T15:20:23;33.40;68.00
4530;DHT22;2277;51.626;7.516;2023-06-19T15:22:48;33.40;66.20
4530;DHT22;2277;51.626;7.516;2023-06-19T15:25:14;33.40;65.60
4530;DHT22;2277;51.626;7.516;2023-06-19T15:27:40;33.40;65.20
4530;DHT22;2277;51.626;7.516;2023-06-19T15:30:06;33.20;65.00
4530;DHT22;2277;51.626;7.516;2023-06-19T15:32:32;33.10;65.20
4530;DHT22;2277;51.626;7.516;2023-06-19T15:34:57;33.10;66.60
4530;DHT22;2277;51.626;7.516;2023-06-19T15:37:23;33.10;66.40
4530;DHT22;2277;51.626;7.516;2023-06-19T15:39:49;33.10;64.50
4530;DHT22;2277;51.626;7.516;2023-06-19T15:42:17;33.10;65.10
4530;DHT22;2277;51.626;7.516;2023-06-19T15:44:42;33.00;64.40
4530;DHT22;2277;51.626;7.516;2023-06-19T15:47:08;32.90;64.60
4530;DHT22;2277;51.626;7.516;2023-06-19T15:49:33;32.70;65.70
4530;DHT22;2277;51.626;7.516;2023-06-19T15:52:02;32.80;66.90
4530;DHT22;2277;51.626;7.516;2023-06-19T15:54:27;32.70;65.20
4530;DHT22;2277;51.626;7.516;2023-06-19T15:56:53;32.80;65.30
4530;DHT22;2277;51.626;7.516;2023-06-19T15:59:18;32.80;64.80
4530;DHT22;2277;51.626;7.516;2023-06-19T16:01:44;32.80;66.50
4530;DHT22;2277;51.626;7.516;2023-06-19T16:04:09;32.80;65.80
4530;DHT22;2277;51.626;7.516;2023-06-19T16:06:35;32.90;63.50
4530;DHT22;2277;51.626;7.516;2023-06-19T16:09:01;32.90;63.90